Terminal Aerodrome Forecast
Issued by NWS

Current Version | Previous Version | Graphics & Text | Print | Product List | Glossary On
Versions: 1 2 3 4 5 6 7 8 9 10 11 12 13 14 15 16 17 18 19
000
FTUS41 KILN 202320
TAFLCK
TAF
KLCK 202320Z 2100/2124 23008KT P6SM SCT050 BKN200
     FM210300 23006KT P6SM VCSH BKN120
     FM211000 32004KT 5SM BR FEW015 BKN035
     FM211300 30004KT P6SM BKN040
     FM212300 27004KT P6SM SCT050 BKN200=

USA.gov is the U.S. government's official web portal to all federal, state and local government web resources and services.